OIIE/IKA METAR and TAF weather

Enter ICAO airport designator
Station Type Date Time Source
OIIE METAR 2019/12/07 07:00 UTC NOAA

OIIE 070700Z 12008KT 9000 -RA FEW040 OVC090 09/03 Q1023


Station Type Date Time Source
OIIE Decoded METAR 2019/12/07 07:00 UTC NOAA

Station name not available
Dec 07, 2019 - 02:00 AM EST / 2019.12.07 0700 UTC
Wind: from the ESE (120 degrees) at 9 MPH (8 KT):0
Visibility: 5 mile(s):0
Sky conditions: overcast
Weather: light rain
Temperature: 48 F (9 C)
Dew Point: 37 F (3 C)
Relative Humidity: 66%
Pressure (altimeter): 30.21 in. Hg (1023 hPa)
ob: OIIE 070700Z 12008KT 9000 -RA FEW040 OVC090 09/03 Q1023
cycle: 7

Station Type Date Time Source
OIIE TAF 2019/12/07 06:00 UTC NOAA

TAF OIIE 070550Z 0706/0812 14006KT 6000 FEW040 OVC090
TEMPO 0706/0712 4000 BR FEW035CB SCT040 OVC090
BECMG 0714/0715 5000 RA BR FEW030CB SCT035 OVC090
TEMPO 0720/0724 3000 SHRA SCT030CB BKN035 OVC090
TEMPO 0804/0810 3000 SHRA SCT030CB BKN035 OVC090

Example: see airport list